Time;durP1;ratioP1;P1;durP2;ratioP2;P2;SDS_P1;SDS_P2;PMS_P1;PMS_P2;Temp;Humidity;BMP_temperature;BMP_pressure;BME280_temperature;BME280_humidity;BME280_pressure;Samples;Min_cycle;Max_cycle;Signal;HPM_P1;HPM_P2
2022/04/23 00:01:06;;;;;;;17.93;16.10;;;10.50;99.90;;;;;;5074144;28;20473;-82
2022/04/23 00:03:35;;;;;;;16.73;15.03;;;10.60;99.90;;;;;;5060038;28;20504;-82
2022/04/23 00:06:02;;;;;;;17.03;15.20;;;10.60;99.90;;;;;;5067911;28;20460;-82
2022/04/23 00:08:29;;;;;;;18.27;16.30;;;10.50;99.90;;;;;;5059387;28;21260;-82
2022/04/23 00:10:55;;;;;;;18.77;15.47;;;10.60;99.90;;;;;;5065910;28;20455;-83
2022/04/23 00:13:23;;;;;;;20.20;17.13;;;10.50;99.90;;;;;;5072856;28;20483;-82
2022/04/23 00:15:50;;;;;;;18.97;16.83;;;10.50;99.90;;;;;;5068556;28;20469;-82
2022/04/23 00:18:18;;;;;;;18.57;14.87;;;10.50;99.90;;;;;;5070937;28;21030;-82
2022/04/23 00:20:47;;;;;;;17.43;15.67;;;10.50;99.90;;;;;;5076062;28;20488;-82
2022/04/23 00:23:14;;;;;;;19.10;17.20;;;10.50;99.90;;;;;;5068537;28;20459;-82
2022/04/23 00:25:45;;;;;;;17.70;15.80;;;10.40;99.90;;;;;;5066434;28;20475;-82
2022/04/23 00:28:12;;;;;;;20.40;17.73;;;10.30;99.90;;;;;;5075022;28;20508;-81
2022/04/23 00:30:40;;;;;;;20.10;18.00;;;10.30;99.90;;;;;;5072577;28;20816;-80
2022/04/23 00:33:09;;;;;;;19.77;16.77;;;10.40;99.90;;;;;;5060963;28;20486;-82
2022/04/23 00:35:36;;;;;;;18.17;15.93;;;10.40;99.90;;;;;;5064877;28;20969;-82
2022/04/23 00:38:07;;;;;;;18.53;16.53;;;10.40;99.90;;;;;;5055124;28;20996;-81
2022/04/23 00:40:33;;;;;;;18.77;15.90;;;10.40;99.90;;;;;;5071873;28;20548;-82
2022/04/23 00:43:01;;;;;;;19.53;17.13;;;10.40;99.90;;;;;;5056500;28;20467;-82
2022/04/23 00:45:28;;;;;;;19.37;16.77;;;10.40;99.90;;;;;;5064217;22;20506;-85
2022/04/23 00:47:56;;;;;;;19.60;17.50;;;10.40;99.90;;;;;;5042092;28;20445;-82
2022/04/23 00:50:23;;;;;;;20.60;18.33;;;10.40;99.90;;;;;;5044776;28;20456;-82
2022/04/23 00:52:50;;;;;;;22.30;19.70;;;10.40;99.90;;;;;;5036566;28;20856;-82
2022/04/23 00:55:20;;;;;;;22.50;20.10;;;10.40;99.90;;;;;;5038332;28;20909;-82
2022/04/23 00:57:47;;;;;;;22.90;19.70;;;10.40;99.90;;;;;;5049151;28;20461;-82
2022/04/23 01:00:15;;;;;;;23.90;20.43;;;10.40;99.90;;;;;;5038024;28;20449;-82
2022/04/23 01:02:41;;;;;;;26.50;21.63;;;10.40;99.90;;;;;;5037000;28;20481;-82
2022/04/23 01:05:09;;;;;;;23.20;20.50;;;10.40;99.90;;;;;;5036481;28;20469;-82
2022/04/23 01:07:38;;;;;;;23.47;20.10;;;10.40;99.90;;;;;;5037994;28;20460;-83
2022/04/23 01:10:07;;;;;;;23.50;21.00;;;10.50;99.90;;;;;;5037095;28;20459;-83
2022/04/23 01:12:36;;;;;;;26.33;22.40;;;10.40;99.90;;;;;;5036427;28;20963;-82
2022/04/23 01:15:05;;;;;;;25.10;22.37;;;10.40;99.90;;;;;;5037757;28;20484;-84
2022/04/23 01:17:32;;;;;;;26.07;23.37;;;10.40;99.90;;;;;;5037238;28;20944;-83
2022/04/23 01:20:04;;;;;;;26.40;23.13;;;10.30;99.90;;;;;;5036116;28;20444;-83
2022/04/23 01:22:31;;;;;;;28.00;23.93;;;10.30;99.90;;;;;;5036860;28;20547;-84
2022/04/23 01:24:57;;;;;;;29.80;24.97;;;10.40;99.90;;;;;;5037467;28;20564;-83
2022/04/23 01:27:26;;;;;;;28.00;23.27;;;10.30;99.90;;;;;;5036895;28;20464;-82
2022/04/23 01:29:53;;;;;;;27.70;24.70;;;10.40;99.90;;;;;;5036891;28;20456;-84
2022/04/23 01:32:20;;;;;;;27.87;24.77;;;10.30;99.90;;;;;;5040280;28;20458;-82
2022/04/23 01:34:47;;;;;;;28.57;23.50;;;10.30;99.90;;;;;;5046094;28;20493;-83
2022/04/23 01:37:17;;;;;;;25.80;22.50;;;10.30;99.90;;;;;;5037056;28;20474;-83
2022/04/23 01:39:45;;;;;;;29.60;23.73;;;10.30;99.90;;;;;;5036164;28;20461;-83
2022/04/23 01:42:11;;;;;;;30.73;24.53;;;10.30;99.90;;;;;;5035155;28;20494;-82
2022/04/23 01:44:38;;;;;;;31.20;26.33;;;10.30;99.90;;;;;;5036190;28;20469;-83
2022/04/23 01:47:05;;;;;;;31.70;26.47;;;10.30;99.90;;;;;;5040161;28;20500;-82
2022/04/23 01:49:32;;;;;;;27.70;23.87;;;10.30;99.90;;;;;;5035953;28;20452;-82
2022/04/23 01:51:59;;;;;;;28.90;24.40;;;10.20;99.90;;;;;;5033696;28;20813;-82
2022/04/23 01:54:27;;;;;;;27.30;24.33;;;10.20;99.90;;;;;;5036611;28;20562;-83
2022/04/23 01:56:58;;;;;;;29.03;24.33;;;10.20;99.90;;;;;;5041153;28;20452;-82
2022/04/23 01:59:25;;;;;;;30.37;24.43;;;10.20;99.90;;;;;;5038078;28;20452;-84
2022/04/23 02:01:52;;;;;;;34.23;24.97;;;10.20;99.90;;;;;;5027702;28;20461;-83
2022/04/23 02:04:19;;;;;;;31.70;23.97;;;10.10;99.90;;;;;;5040362;28;20519;-82
2022/04/23 02:06:46;;;;;;;29.50;24.40;;;10.20;99.90;;;;;;5048781;28;20454;-82
2022/04/23 02:09:14;;;;;;;28.63;23.07;;;10.10;99.90;;;;;;5046874;28;20534;-83
2022/04/23 02:11:42;;;;;;;28.93;24.70;;;10.10;99.90;;;;;;5048502;28;20520;-82
2022/04/23 02:14:08;;;;;;;30.10;23.50;;;10.10;99.90;;;;;;5047984;28;20511;-82
2022/04/23 02:16:35;;;;;;;25.70;23.00;;;10.10;99.90;;;;;;5049258;28;20918;-82
2022/04/23 02:19:03;;;;;;;28.30;24.73;;;10.10;99.90;;;;;;5039624;28;20814;-83
2022/04/23 02:21:30;;;;;;;25.40;22.70;;;10.10;99.90;;;;;;5034198;28;20490;-82
2022/04/23 02:23:57;;;;;;;28.30;24.20;;;10.10;99.90;;;;;;5035154;28;20448;-82
2022/04/23 02:26:24;;;;;;;28.97;24.17;;;10.10;99.90;;;;;;5034589;28;20506;-82
2022/04/23 02:28:53;;;;;;;29.00;25.20;;;10.10;99.90;;;;;;5034501;28;20454;-82
2022/04/23 02:31:20;;;;;;;27.60;23.77;;;10.10;99.90;;;;;;5031543;28;20453;-83
2022/04/23 02:33:46;;;;;;;27.90;24.60;;;10.10;99.90;;;;;;5035505;28;20484;-81
2022/04/23 02:36:15;;;;;;;27.53;24.00;;;10.10;99.90;;;;;;5035897;28;20487;-83
2022/04/23 02:38:42;;;;;;;33.07;26.57;;;10.10;99.90;;;;;;5035484;28;20499;-83
2022/04/23 02:41:09;;;;;;;28.13;24.40;;;10.00;99.90;;;;;;5040381;28;20491;-81
2022/04/23 02:43:38;;;;;;;25.80;22.17;;;10.10;99.90;;;;;;5035944;28;20455;-81
2022/04/23 02:46:07;;;;;;;25.40;22.77;;;10.00;99.90;;;;;;5034126;28;21046;-82
2022/04/23 02:48:33;;;;;;;27.27;22.80;;;10.10;99.90;;;;;;5033155;28;20462;-83
2022/04/23 02:51:01;;;;;;;27.70;24.73;;;10.00;99.90;;;;;;5032583;28;20450;-83
2022/04/23 02:53:28;;;;;;;26.60;22.63;;;10.00;99.90;;;;;;5033244;28;20497;-82
2022/04/23 02:55:56;;;;;;;27.80;23.27;;;10.00;99.90;;;;;;5033711;28;20514;-82
2022/04/23 02:58:25;;;;;;;27.87;22.10;;;9.90;99.90;;;;;;5033294;28;20466;-82
2022/04/23 03:00:53;;;;;;;29.77;24.50;;;9.90;99.90;;;;;;5034599;28;20454;-84
2022/04/23 03:03:22;;;;;;;27.27;23.17;;;9.90;99.90;;;;;;5034944;28;20463;-83
2022/04/23 03:05:51;;;;;;;26.67;22.97;;;9.90;99.90;;;;;;5035715;28;20469;-82
2022/04/23 03:08:19;;;;;;;25.87;23.07;;;10.00;99.90;;;;;;5034730;28;20515;-83
2022/04/23 03:10:45;;;;;;;28.90;22.10;;;10.00;99.90;;;;;;5033769;28;20500;-83
2022/04/23 03:13:14;;;;;;;23.37;20.87;;;10.00;99.90;;;;;;5034431;28;20458;-82
2022/04/23 03:15:44;;;;;;;26.03;21.10;;;10.00;99.90;;;;;;5034489;28;20476;-81
2022/04/23 03:18:13;;;;;;;24.40;21.10;;;10.00;99.90;;;;;;5035362;28;20850;-82
2022/04/23 03:20:42;;;;;;;22.93;20.07;;;10.10;99.90;;;;;;5033771;28;20460;-82
2022/04/23 03:23:09;;;;;;;26.27;22.43;;;10.20;99.90;;;;;;5033752;28;20451;-82
2022/04/23 03:25:36;;;;;;;27.90;21.77;;;10.30;99.90;;;;;;5034858;28;20476;-82
2022/04/23 03:28:03;;;;;;;28.70;23.07;;;10.40;99.90;;;;;;5034690;28;20458;-83
2022/04/23 03:30:31;;;;;;;25.60;22.90;;;10.50;99.90;;;;;;5044386;28;20459;-83
2022/04/23 03:32:58;;;;;;;28.60;23.77;;;10.60;99.90;;;;;;5054679;28;20456;-82
2022/04/23 03:35:25;;;;;;;26.67;22.90;;;10.60;99.90;;;;;;5054401;28;20935;-81
2022/04/23 03:37:55;;;;;;;27.10;22.70;;;10.80;99.90;;;;;;5039455;28;20499;-82
2022/04/23 03:40:22;;;;;;;27.87;23.33;;;10.90;99.90;;;;;;5039983;28;20464;-82
2022/04/23 03:42:49;;;;;;;24.30;21.73;;;10.90;99.90;;;;;;5040981;28;20658;-83
2022/04/23 03:45:18;;;;;;;26.70;22.77;;;11.00;99.90;;;;;;5037232;28;21019;-83
2022/04/23 03:47:45;;;;;;;26.50;23.70;;;10.80;99.90;;;;;;5039462;28;20472;-82
2022/04/23 03:50:13;;;;;;;29.30;25.87;;;10.80;99.90;;;;;;5036615;28;20837;-82
2022/04/23 03:52:40;;;;;;;27.43;23.23;;;10.70;99.90;;;;;;5040376;28;20456;-81
2022/04/23 03:55:09;;;;;;;25.23;22.50;;;10.50;99.90;;;;;;5040487;28;20515;-84
2022/04/23 03:57:44;;;;;;;26.20;22.73;;;10.50;99.90;;;;;;5038040;28;20444;-82
2022/04/23 04:00:13;;;;;;;26.70;23.33;;;10.30;99.90;;;;;;5036486;28;20465;-83
2022/04/23 04:02:40;;;;;;;27.27;23.53;;;10.30;99.90;;;;;;5036417;28;20461;-82
2022/04/23 04:05:07;;;;;;;26.53;23.40;;;10.20;99.90;;;;;;5037135;28;20475;-82
2022/04/23 04:07:34;;;;;;;30.70;25.60;;;10.30;99.90;;;;;;5037414;28;20817;-82
2022/04/23 04:10:01;;;;;;;27.83;24.70;;;10.20;99.90;;;;;;5036184;28;20453;-82
2022/04/23 04:12:29;;;;;;;28.17;25.17;;;10.30;99.90;;;;;;5037093;28;20806;-82
2022/04/23 04:14:57;;;;;;;26.70;23.43;;;10.30;99.90;;;;;;5036879;28;20575;-82
2022/04/23 04:17:25;;;;;;;29.40;25.17;;;10.40;99.90;;;;;;5040078;28;20459;-82
2022/04/23 04:19:53;;;;;;;29.37;24.87;;;10.60;99.90;;;;;;5036755;28;20463;-81
2022/04/23 04:22:22;;;;;;;29.50;26.27;;;10.70;99.90;;;;;;5036708;28;20456;-82
2022/04/23 04:24:49;;;;;;;30.10;24.47;;;10.80;99.90;;;;;;5036979;28;20471;-82
2022/04/23 04:27:16;;;;;;;26.23;22.40;;;10.90;99.90;;;;;;5035962;28;20460;-83
2022/04/23 04:29:44;;;;;;;27.67;24.10;;;11.00;99.90;;;;;;5034777;28;20451;-83
2022/04/23 04:32:12;;;;;;;25.47;22.80;;;11.00;99.90;;;;;;5035330;28;20457;-82
2022/04/23 04:34:39;;;;;;;30.23;25.33;;;11.00;99.90;;;;;;5035764;28;20864;-82
2022/04/23 04:37:08;;;;;;;27.80;23.80;;;10.90;99.90;;;;;;5036689;28;20463;-83
2022/04/23 04:39:35;;;;;;;29.07;25.83;;;10.90;99.90;;;;;;5035815;28;20453;-82
2022/04/23 04:42:02;;;;;;;30.57;25.70;;;10.90;99.90;;;;;;5034383;28;20468;-82
2022/04/23 04:44:29;;;;;;;27.53;24.53;;;10.80;99.90;;;;;;5034774;28;20480;-82
2022/04/23 04:46:57;;;;;;;26.63;22.30;;;10.80;99.90;;;;;;5035619;28;20456;-82
2022/04/23 04:49:24;;;;;;;28.07;25.07;;;10.80;99.90;;;;;;5035824;28;20535;-81
2022/04/23 04:51:52;;;;;;;27.00;23.60;;;10.80;99.90;;;;;;5035040;28;20462;-82
2022/04/23 04:54:21;;;;;;;31.07;26.47;;;10.80;99.90;;;;;;5035911;28;20500;-81
2022/04/23 04:56:48;;;;;;;27.53;24.27;;;10.90;99.90;;;;;;5035978;28;20456;-82
2022/04/23 04:59:15;;;;;;;27.00;24.10;;;11.00;99.90;;;;;;5035048;28;20456;-82
2022/04/23 05:01:42;;;;;;;26.20;23.43;;;11.10;99.90;;;;;;5027284;28;20515;-81
2022/04/23 05:04:10;;;;;;;28.67;24.60;;;11.20;99.90;;;;;;5035482;28;20456;-82
2022/04/23 05:06:37;;;;;;;28.87;25.73;;;11.30;99.90;;;;;;5036263;28;20449;-80
2022/04/23 05:09:04;;;;;;;28.60;25.50;;;11.40;99.90;;;;;;5034456;28;20461;-80
2022/04/23 05:11:31;;;;;;;29.60;24.27;;;11.50;99.90;;;;;;5027952;28;20467;-80
2022/04/23 05:13:58;;;;;;;27.60;23.20;;;11.50;99.90;;;;;;5015365;28;20486;-81
2022/04/23 05:16:25;;;;;;;27.43;24.27;;;11.50;99.90;;;;;;5015184;28;20925;-81
2022/04/23 05:18:51;;;;;;;29.27;26.10;;;11.60;99.90;;;;;;5015627;28;20840;-81
2022/04/23 05:21:20;;;;;;;26.73;23.90;;;11.70;99.90;;;;;;5034300;28;20452;-81
2022/04/23 05:23:52;;;;;;;29.23;24.60;;;11.70;99.90;;;;;;5029462;28;20587;-82
2022/04/23 05:26:19;;;;;;;28.57;25.50;;;11.70;99.90;;;;;;5023717;28;20479;-82
2022/04/23 05:28:46;;;;;;;28.67;24.07;;;11.80;99.90;;;;;;5026796;28;20450;-81
2022/04/23 05:31:13;;;;;;;28.97;25.90;;;11.90;99.90;;;;;;5033810;28;20461;-82
2022/04/23 05:33:40;;;;;;;28.90;25.20;;;11.90;99.90;;;;;;5024805;28;20456;-81
2022/04/23 05:36:07;;;;;;;27.60;23.93;;;12.00;99.90;;;;;;5025838;28;20999;-81
2022/04/23 05:38:36;;;;;;;27.70;23.30;;;12.00;99.90;;;;;;5022848;28;20456;-81
2022/04/23 05:41:03;;;;;;;26.67;23.80;;;12.10;99.90;;;;;;5023667;28;20451;-81
2022/04/23 05:43:33;;;;;;;28.77;25.00;;;12.00;99.90;;;;;;5022379;28;20581;-82
2022/04/23 05:46:00;;;;;;;29.10;25.90;;;12.00;99.90;;;;;;5023813;28;20470;-81
2022/04/23 05:48:27;;;;;;;28.63;25.40;;;11.90;99.90;;;;;;5023889;28;20458;-81
2022/04/23 05:50:55;;;;;;;28.80;25.57;;;11.80;99.90;;;;;;5023466;28;20450;-81
2022/04/23 05:53:21;;;;;;;28.47;24.60;;;11.60;99.90;;;;;;5020392;28;20812;-80
2022/04/23 05:55:55;;;;;;;29.47;26.33;;;11.50;99.90;;;;;;5023548;28;20496;-79
2022/04/23 05:58:21;;;;;;;30.67;26.40;;;11.50;99.90;;;;;;5025861;28;20473;-79
2022/04/23 06:00:48;;;;;;;29.53;26.33;;;11.40;99.90;;;;;;5027088;28;20449;-81
2022/04/23 06:03:15;;;;;;;31.50;27.10;;;11.40;99.90;;;;;;5024014;28;20825;-80
2022/04/23 06:05:42;;;;;;;32.53;28.03;;;11.40;99.90;;;;;;5021499;28;20473;-81
2022/04/23 06:08:09;;;;;;;30.27;26.30;;;11.50;99.90;;;;;;5023343;28;20446;-81
2022/04/23 06:10:38;;;;;;;31.00;26.63;;;11.50;99.90;;;;;;5022026;28;20521;-80
2022/04/23 06:13:08;;;;;;;31.90;27.50;;;11.50;99.90;;;;;;5023986;28;20453;-81
2022/04/23 06:15:35;;;;;;;32.43;26.97;;;11.60;99.90;;;;;;5025123;28;20490;-81
2022/04/23 06:18:02;;;;;;;32.40;26.30;;;11.60;99.90;;;;;;5022159;28;20454;-81
2022/04/23 06:20:32;;;;;;;31.13;27.27;;;11.70;99.90;;;;;;5022949;28;20459;-80
2022/04/23 06:22:58;;;;;;;30.07;25.90;;;11.80;99.90;;;;;;5023755;28;20464;-80
2022/04/23 06:25:25;;;;;;;30.40;25.47;;;11.90;99.90;;;;;;5021872;28;20978;-81
2022/04/23 06:27:52;;;;;;;30.83;27.53;;;11.90;99.90;;;;;;5025714;28;20450;-80
2022/04/23 06:30:21;;;;;;;28.57;25.60;;;11.90;99.90;;;;;;5025342;28;20471;-80
2022/04/23 06:32:47;;;;;;;31.87;26.67;;;12.00;99.90;;;;;;5024796;28;20449;-80
2022/04/23 06:35:14;;;;;;;31.00;27.73;;;12.10;99.90;;;;;;5029683;28;20585;-79
2022/04/23 06:37:42;;;;;;;31.40;26.50;;;12.10;99.90;;;;;;5021924;28;20458;-80
2022/04/23 06:40:11;;;;;;;29.60;26.50;;;12.20;99.90;;;;;;5024636;28;20458;-81
2022/04/23 06:42:39;;;;;;;31.67;28.37;;;12.20;99.90;;;;;;5025540;28;21055;-81
2022/04/23 06:45:12;;;;;;;33.40;29.83;;;12.30;99.90;;;;;;5021979;28;20482;-80
2022/04/23 06:47:40;;;;;;;29.23;26.00;;;12.30;99.90;;;;;;5024650;28;20444;-81
2022/04/23 06:50:08;;;;;;;29.70;26.27;;;12.40;99.90;;;;;;5022680;28;20475;-81
2022/04/23 06:52:35;;;;;;;30.77;25.63;;;12.50;99.90;;;;;;5025081;28;20542;-81
2022/04/23 06:55:02;;;;;;;30.13;26.77;;;12.60;99.90;;;;;;5022152;28;20565;-79
2022/04/23 06:57:29;;;;;;;29.57;26.40;;;12.60;99.90;;;;;;5026727;28;20452;-81
2022/04/23 06:59:58;;;;;;;29.37;26.20;;;12.70;99.90;;;;;;5020835;28;20446;-81
2022/04/23 07:02:24;;;;;;;30.53;27.23;;;12.80;99.90;;;;;;5031854;28;21004;-81
2022/04/23 07:04:53;;;;;;;31.17;25.10;;;12.80;99.90;;;;;;5032175;28;20487;-81
2022/04/23 07:07:19;;;;;;;29.03;25.87;;;13.00;99.90;;;;;;5032567;28;20455;-79
2022/04/23 07:09:46;;;;;;;28.07;24.80;;;13.00;99.90;;;;;;5035007;28;20838;-80
2022/04/23 07:12:14;;;;;;;30.63;26.30;;;13.20;99.90;;;;;;5037057;28;20535;-80
2022/04/23 07:14:41;;;;;;;27.73;24.80;;;13.30;99.90;;;;;;5038136;28;21119;-80
2022/04/23 07:17:10;;;;;;;28.07;23.27;;;13.30;99.90;;;;;;5038978;28;20512;-81
2022/04/23 07:19:39;;;;;;;27.17;24.20;;;13.40;99.90;;;;;;5036433;28;20455;-81
2022/04/23 07:22:07;;;;;;;31.43;27.60;;;13.50;99.90;;;;;;5041534;28;20961;-81
2022/04/23 07:24:34;;;;;;;27.93;25.13;;;13.60;99.90;;;;;;5036330;28;20476;-80
2022/04/23 07:27:01;;;;;;;29.80;26.70;;;13.60;99.90;;;;;;5037475;28;20460;-80
2022/04/23 07:29:28;;;;;;;29.73;26.63;;;13.70;99.90;;;;;;5036415;28;21005;-80
2022/04/23 07:31:55;;;;;;;28.30;25.37;;;13.70;99.90;;;;;;5036156;28;20964;-80
2022/04/23 07:39:52;;;;;;;29.07;24.90;;;14.10;99.90;;;;;;5021925;28;20451;-80
2022/04/23 07:42:18;;;;;;;30.00;24.70;;;14.20;99.90;;;;;;5020761;28;20458;-81
2022/04/23 07:44:45;;;;;;;29.10;26.10;;;14.30;99.90;;;;;;5029248;28;20483;-81
2022/04/23 07:47:12;;;;;;;31.97;25.63;;;14.40;99.90;;;;;;5043874;28;20449;-82
2022/04/23 07:49:39;;;;;;;29.40;26.20;;;14.40;99.90;;;;;;5035117;28;20449;-81
2022/04/23 07:52:06;;;;;;;28.00;24.50;;;14.50;99.90;;;;;;5035749;28;20459;-81
2022/04/23 07:54:37;;;;;;;27.20;24.40;;;14.70;99.90;;;;;;5034815;28;20475;-81
2022/04/23 07:57:06;;;;;;;30.60;26.80;;;14.90;99.90;;;;;;5036249;28;20452;-80
2022/04/23 08:02:02;;;;;;;29.17;26.00;;;15.10;99.90;;;;;;5083725;22;20534;-81
2022/04/23 08:04:29;;;;;;;27.30;23.83;;;15.40;99.90;;;;;;5065424;28;20863;-82
2022/04/23 08:06:56;;;;;;;24.83;22.17;;;16.20;99.90;;;;;;5065967;28;20456;-82
2022/04/23 08:09:22;;;;;;;29.43;24.93;;;16.90;99.90;;;;;;5064812;28;20454;-82
2022/04/23 08:11:51;;;;;;;26.97;23.90;;;17.50;99.90;;;;;;5063804;28;20475;-82
2022/04/23 08:14:18;;;;;;;28.33;24.47;;;18.10;99.90;;;;;;5058599;28;20531;-81
2022/04/23 08:16:45;;;;;;;23.37;20.93;;;18.50;99.90;;;;;;5052232;28;20478;-81
2022/04/23 08:19:12;;;;;;;26.90;23.30;;;19.10;99.90;;;;;;5062624;28;20468;-82
2022/04/23 08:21:39;;;;;;;24.87;22.53;;;20.30;99.90;;;;;;5063908;28;20568;-80
2022/04/23 08:24:06;;;;;;;26.33;23.60;;;20.60;99.90;;;;;;5062761;28;20487;-81
2022/04/23 08:26:33;;;;;;;24.17;21.77;;;21.80;99.90;;;;;;5064501;28;20440;-82
2022/04/23 08:31:45;;;;;;;25.70;23.30;;;22.60;99.90;;;;;;5057028;28;20625;-79
2022/04/23 08:34:12;;;;;;;25.03;22.57;;;23.50;99.90;;;;;;5058165;28;20448;-80
2022/04/23 08:36:39;;;;;;;23.17;20.97;;;23.60;99.90;;;;;;5056933;28;21065;-81
2022/04/23 08:39:06;;;;;;;27.20;24.50;;;24.00;99.90;;;;;;5057633;28;20568;-80
2022/04/23 08:41:35;;;;;;;26.10;23.50;;;23.30;99.90;;;;;;5057328;28;20480;-81
2022/04/23 08:44:06;;;;;;;24.27;21.90;;;23.60;99.90;;;;;;5057128;28;20460;-79
2022/04/23 08:46:34;;;;;;;27.43;24.90;;;23.70;99.90;;;;;;5056093;28;20491;-80
2022/04/23 08:49:09;;;;;;;26.80;24.20;;;23.80;99.90;;;;;;5057629;28;21007;-80
2022/04/23 08:51:38;;;;;;;23.30;21.10;;;23.80;99.60;;;;;;5058412;28;20483;-80
2022/04/23 08:54:07;;;;;;;30.13;25.30;;;24.20;99.90;;;;;;5057841;28;20486;-81
2022/04/23 08:56:36;;;;;;;25.43;23.23;;;24.70;97.30;;;;;;5060374;28;20482;-82
2022/04/23 08:59:06;;;;;;;25.77;23.27;;;25.10;98.60;;;;;;5062082;28;20572;-81
2022/04/23 09:01:33;;;;;;;29.00;26.03;;;25.10;96.40;;;;;;5062754;28;21007;-79
2022/04/23 09:04:01;;;;;;;27.20;24.70;;;25.30;94.40;;;;;;5062639;28;20459;-80
2022/04/23 09:06:37;;;;;;;27.73;25.30;;;24.90;94.40;;;;;;5063329;28;20456;-86
2022/04/23 09:09:16;;;;;;;26.47;24.17;;;25.30;91.80;;;;;;5063857;28;20443;-81
2022/04/23 09:11:45;;;;;;;26.70;24.20;;;25.10;91.20;;;;;;5054153;28;20476;-81
2022/04/23 09:14:25;;;;;;;28.13;25.43;;;25.00;93.70;;;;;;5058019;28;20456;-81
2022/04/23 09:25:15;;;;;;;23.03;21.03;;;26.40;88.90;;;;;;5059253;28;20812;-80
2022/04/23 09:27:43;;;;;;;28.77;25.97;;;26.50;90.00;;;;;;5059448;28;20513;-80
2022/04/23 09:30:13;;;;;;;24.73;22.63;;;27.30;88.20;;;;;;5060081;28;20471;-80
2022/04/23 09:32:57;;;;;;;27.93;23.43;;;27.60;87.30;;;;;;5059984;28;20529;-81
2022/04/23 09:35:24;;;;;;;24.23;21.90;;;28.00;80.00;;;;;;5060528;28;20854;-81
2022/04/23 09:40:36;;;;;;;22.30;20.30;;;28.90;75.30;;;;;;5062004;28;20489;-82
2022/04/23 09:43:05;;;;;;;24.97;22.80;;;28.70;76.30;;;;;;5062101;28;20456;-79
2022/04/23 09:45:39;;;;;;;24.40;22.13;;;28.10;77.10;;;;;;5063120;28;20476;-81
2022/04/23 09:48:17;;;;;;;19.70;17.80;;;28.40;76.70;;;;;;5062316;28;20456;-82
2022/04/23 09:50:45;;;;;;;22.50;20.50;;;28.90;72.50;;;;;;5061504;28;20976;-83
2022/04/23 09:53:13;;;;;;;19.80;18.07;;;30.00;73.20;;;;;;5061279;28;20483;-81
2022/04/23 09:55:41;;;;;;;22.20;20.20;;;29.50;71.00;;;;;;5063757;28;20482;-82
2022/04/23 09:58:09;;;;;;;21.60;19.60;;;29.00;66.10;;;;;;5065625;28;20547;-80
2022/04/23 10:00:39;;;;;;;20.93;19.13;;;29.40;63.80;;;;;;5063431;28;20491;-80
2022/04/23 10:03:09;;;;;;;23.37;21.33;;;28.50;69.60;;;;;;5063976;28;20535;-80
2022/04/23 10:05:39;;;;;;;20.73;18.73;;;28.10;69.10;;;;;;5064202;28;20512;-82
2022/04/23 10:08:12;;;;;;;20.47;18.80;;;29.20;66.10;;;;;;5064864;28;20456;-80
2022/04/23 10:10:43;;;;;;;21.10;19.30;;;29.40;66.90;;;;;;5063046;28;20495;-81
2022/04/23 10:13:12;;;;;;;19.93;18.03;;;29.60;66.10;;;;;;5055683;28;20440;-80
2022/04/23 10:15:47;;;;;;;18.73;17.03;;;29.80;63.60;;;;;;5060019;28;20484;-80
2022/04/23 10:18:15;;;;;;;20.40;18.60;;;30.60;61.10;;;;;;5060047;28;20447;-82
2022/04/23 10:20:52;;;;;;;18.43;16.63;;;30.80;59.70;;;;;;5059079;28;20825;-81
2022/04/23 10:23:42;;;;;;;18.53;16.93;;;30.80;62.80;;;;;;5042038;28;20518;-80
2022/04/23 10:26:28;;;;;;;18.10;16.40;;;31.30;60.00;;;;;;5055896;28;20448;-82
2022/04/23 10:28:55;;;;;;;20.73;18.70;;;31.00;59.10;;;;;;5048431;28;20464;-80
2022/04/23 10:31:25;;;;;;;19.33;17.43;;;30.00;59.90;;;;;;5060039;28;20472;-79
2022/04/23 10:33:52;;;;;;;19.33;17.63;;;30.60;58.20;;;;;;5046030;28;20452;-81
2022/04/23 10:36:20;;;;;;;21.43;19.63;;;30.30;57.80;;;;;;5048220;28;20860;-81
2022/04/23 10:38:52;;;;;;;19.73;17.83;;;29.70;56.70;;;;;;5060931;28;20551;-79
2022/04/23 10:41:20;;;;;;;20.33;18.40;;;28.90;60.70;;;;;;5060308;28;20475;-80
2022/04/23 10:43:49;;;;;;;17.63;15.97;;;30.10;55.90;;;;;;5064147;28;20452;-79
2022/04/23 10:46:50;;;;;;;12.37;11.10;;;30.30;59.50;;;;;;5053258;28;20443;-81
2022/04/23 10:49:19;;;;;;;11.30;10.30;;;30.50;52.60;;;;;;5063793;28;20463;-82
2022/04/23 10:51:48;;;;;;;11.53;10.40;;;30.60;55.60;;;;;;5068754;28;20464;-81
2022/04/23 10:54:16;;;;;;;11.90;10.80;;;30.30;53.30;;;;;;5065064;28;20546;-82
2022/04/23 10:56:44;;;;;;;12.50;11.30;;;29.60;52.20;;;;;;5063462;28;20551;-81
2022/04/23 10:59:42;;;;;;;14.30;13.00;;;28.80;54.20;;;;;;5047024;28;20486;-81
2022/04/23 11:02:32;;;;;;;18.00;16.30;;;27.30;53.70;;;;;;5042300;28;20560;-82
2022/04/23 11:13:23;;;;;;;10.97;9.97;;;29.10;56.20;;;;;;5065654;28;20505;-81
2022/04/23 11:16:12;;;;;;;16.60;15.20;;;30.90;56.50;;;;;;5063754;28;20479;-80
2022/04/23 11:18:40;;;;;;;16.57;14.97;;;32.80;57.70;;;;;;5055282;28;20516;-79
2022/04/23 11:21:16;;;;;;;17.53;15.93;;;34.60;54.50;;;;;;5044417;28;20457;-82
2022/04/23 11:23:45;;;;;;;18.00;16.47;;;35.00;54.20;;;;;;5060222;28;20445;-81
2022/04/23 11:26:12;;;;;;;21.07;19.17;;;34.20;52.50;;;;;;5063365;28;20474;-83
2022/04/23 11:28:43;;;;;;;16.83;15.43;;;33.10;50.80;;;;;;5062780;28;20452;-81
2022/04/23 11:31:12;;;;;;;15.70;14.30;;;31.20;49.80;;;;;;5061135;28;20482;-81
2022/04/23 11:33:50;;;;;;;12.90;11.70;;;28.90;50.20;;;;;;5055843;28;20446;-80
2022/04/23 11:36:17;;;;;;;14.17;12.87;;;26.80;52.60;;;;;;5053465;28;20550;-80
2022/04/23 11:38:44;;;;;;;13.47;12.17;;;25.80;53.70;;;;;;5055364;28;20476;-82
2022/04/23 11:41:11;;;;;;;12.00;10.77;;;24.90;54.40;;;;;;5054002;28;20844;-80
2022/04/23 11:43:39;;;;;;;13.67;12.30;;;25.10;57.70;;;;;;5054406;28;20443;-80
2022/04/23 11:46:07;;;;;;;13.47;12.13;;;24.80;54.70;;;;;;5052195;28;20840;-81
2022/04/23 11:48:43;;;;;;;13.60;12.30;;;24.10;57.40;;;;;;5052437;28;20432;-79
2022/04/23 11:51:12;;;;;;;13.13;11.83;;;23.60;57.90;;;;;;5050969;28;20499;-80
2022/04/23 11:53:58;;;;;;;15.93;14.33;;;23.20;57.60;;;;;;5053905;28;20940;-83
2022/04/23 11:56:30;;;;;;;16.17;14.60;;;22.80;57.30;;;;;;5052620;28;20480;-83
2022/04/23 11:58:59;;;;;;;17.57;14.70;;;21.90;58.00;;;;;;5056209;28;20461;-81
2022/04/23 12:01:27;;;;;;;16.63;15.03;;;21.50;61.90;;;;;;5056138;28;20965;-81
2022/04/23 12:03:57;;;;;;;17.00;15.20;;;21.40;61.40;;;;;;5052991;28;20949;-80
2022/04/23 12:06:25;;;;;;;17.30;15.60;;;21.60;61.40;;;;;;5053402;28;20444;-80
2022/04/23 12:08:52;;;;;;;15.80;14.20;;;22.00;59.80;;;;;;5052167;28;20455;-79
2022/04/23 12:11:24;;;;;;;18.63;16.60;;;21.60;61.00;;;;;;5054350;28;20461;-82
2022/04/23 12:13:51;;;;;;;15.30;13.57;;;21.50;61.60;;;;;;5051384;28;20451;-79
2022/04/23 12:16:32;;;;;;;15.00;13.50;;;21.80;64.00;;;;;;5056538;28;20486;-80
2022/04/23 12:19:01;;;;;;;14.37;12.87;;;22.80;64.00;;;;;;5053139;28;20487;-81
2022/04/23 12:21:28;;;;;;;15.63;14.17;;;25.40;61.30;;;;;;5050215;28;20550;-83
2022/04/23 12:23:55;;;;;;;15.27;13.70;;;28.00;57.10;;;;;;5057452;28;20464;-83
2022/04/23 12:26:23;;;;;;;14.00;12.70;;;28.20;53.50;;;;;;5055944;28;20443;-84
2022/04/23 12:43:23;;;;;;;14.60;13.20;;;25.60;57.20;;;;;;5051245;28;20467;-81
2022/04/23 12:45:50;;;;;;;14.23;12.37;;;25.20;57.50;;;;;;5051191;28;20456;-81
2022/04/23 12:48:18;;;;;;;13.23;11.93;;;25.90;57.60;;;;;;5048936;28;20866;-81
2022/04/23 12:50:46;;;;;;;13.90;12.50;;;27.50;56.30;;;;;;5063518;28;20489;-83
2022/04/23 12:53:32;;;;;;;13.27;12.00;;;27.40;55.30;;;;;;5048826;28;20848;-82
2022/04/23 12:56:01;;;;;;;13.07;11.83;;;26.70;52.90;;;;;;5045576;28;20472;-83
2022/04/23 12:58:30;;;;;;;13.33;12.00;;;26.10;57.30;;;;;;5055655;28;20444;-83
2022/04/23 13:00:57;;;;;;;13.60;12.20;;;26.30;55.80;;;;;;5053528;28;20724;-80
2022/04/23 13:03:34;;;;;;;12.63;11.43;;;26.50;57.80;;;;;;5058434;28;20527;-82
2022/04/23 13:06:03;;;;;;;13.23;11.70;;;26.50;56.60;;;;;;5052153;28;20861;-80
2022/04/23 13:11:30;;;;;;;17.57;15.83;;;24.30;56.70;;;;;;5047926;28;20855;-79
2022/04/23 13:13:59;;;;;;;17.07;15.37;;;23.30;58.10;;;;;;5050878;28;20456;-80
2022/04/23 13:16:28;;;;;;;16.50;15.00;;;22.60;61.90;;;;;;5053443;28;20482;-80
2022/04/23 13:18:56;;;;;;;17.03;15.27;;;22.10;59.50;;;;;;5055094;28;20456;-80
2022/04/23 13:21:26;;;;;;;15.40;13.87;;;22.10;62.70;;;;;;5049130;28;20477;-80
2022/04/23 13:23:53;;;;;;;15.27;13.10;;;22.20;62.10;;;;;;5062222;28;20448;-80